createdAt,value
2022-11-17T00:01:45.834Z,97679.00
2022-11-17T00:04:12.738Z,97664.00
2022-11-17T00:06:45.828Z,97688.00
2022-11-17T00:09:13.950Z,97698.00
2022-11-17T00:11:40.920Z,97693.00
2022-11-17T00:14:15.826Z,97719.00
2022-11-17T00:16:42.711Z,97729.00
2022-11-17T00:19:15.839Z,97707.00
2022-11-17T00:21:42.778Z,97715.00
2022-11-17T00:24:15.859Z,97693.00
2022-11-17T00:26:42.875Z,97708.00
2022-11-17T00:29:15.882Z,97710.00
2022-11-17T00:31:42.781Z,97701.00
2022-11-17T00:34:26.851Z,97707.00
2022-11-17T00:36:54.349Z,97709.00
2022-11-17T00:39:22.411Z,97710.00
2022-11-17T00:41:55.857Z,97704.00
2022-11-17T00:44:22.796Z,97681.00
2022-11-17T00:46:55.879Z,97688.00
2022-11-17T00:49:22.856Z,97703.00
2022-11-17T00:51:55.839Z,97673.00
2022-11-17T00:54:23.094Z,97685.00
2022-11-17T00:56:56.870Z,97676.00
2022-11-17T00:59:29.895Z,97695.00
2022-11-17T01:01:56.867Z,97657.00
2022-11-17T01:04:29.931Z,97692.00
2022-11-17T01:06:56.949Z,97709.00
2022-11-17T01:09:30.934Z,97676.00
2022-11-17T01:11:57.850Z,97685.00
2022-11-17T01:14:27.302Z,97694.00
2022-11-17T01:17:00.914Z,97668.00
2022-11-17T01:19:27.854Z,97694.00
2022-11-17T01:22:00.960Z,97666.00
2022-11-17T01:24:28.045Z,97686.00
2022-11-17T01:27:01.897Z,97703.00
2022-11-17T01:29:28.849Z,97684.00
2022-11-17T01:32:01.969Z,97695.00
2022-11-17T01:34:29.219Z,97690.00
2022-11-17T01:37:02.908Z,97692.00
2022-11-17T01:39:30.987Z,97683.00
2022-11-17T01:41:58.175Z,97656.00
2022-11-17T01:45:11.959Z,97672.00
2022-11-17T01:47:51.359Z,97687.00
2022-11-17T01:50:42.982Z,97665.00
2022-11-17T01:53:16.489Z,97685.00
2022-11-17T01:55:54.892Z,97682.00
2022-11-17T01:58:33.473Z,97675.00
2022-11-17T02:01:06.987Z,97681.00
2022-11-17T02:03:34.501Z,97666.00
2022-11-17T02:06:28.949Z,97660.00
2022-11-17T02:08:55.914Z,97658.00
2022-11-17T02:11:30.056Z,97661.00
2022-11-17T02:14:03.976Z,97635.00
2022-11-17T02:16:37.963Z,97669.00
2022-11-17T02:19:10.911Z,97671.00
2022-11-17T02:22:26.162Z,97677.00
2022-11-17T02:25:36.935Z,97690.00
2022-11-17T02:28:31.464Z,97678.00
2022-11-17T02:31:42.942Z,97650.00
2022-11-17T02:34:48.457Z,97679.00
2022-11-17T02:37:50.923Z,97665.00
2022-11-17T02:40:50.227Z,97697.00
2022-11-17T02:43:27.010Z,97678.00
2022-11-17T02:46:08.998Z,97688.00
2022-11-17T02:48:47.915Z,97692.00
2022-11-17T02:51:20.061Z,97724.00
2022-11-17T02:53:54.968Z,97748.00
2022-11-17T02:56:28.732Z,97713.00
2022-11-17T02:59:06.930Z,97727.00
2022-11-17T03:01:48.679Z,97758.00
2022-11-17T03:04:33.958Z,97758.00
2022-11-17T03:07:32.046Z,97684.00
2022-11-17T03:10:20.940Z,97681.00
2022-11-17T03:13:05.965Z,97633.00
2022-11-17T03:15:51.694Z,97611.00
2022-11-17T03:18:47.018Z,97592.00
2022-11-17T03:21:28.958Z,97606.00
2022-11-17T03:24:30.020Z,97632.00
2022-11-17T03:27:20.749Z,97655.00
2022-11-17T03:29:56.963Z,97664.00
2022-11-17T03:32:24.003Z,97669.00
2022-11-17T03:35:07.959Z,97706.00
2022-11-17T03:37:35.452Z,97700.00
2022-11-17T03:40:14.981Z,97719.00
2022-11-17T03:42:45.043Z,97715.00
2022-11-17T03:45:22.991Z,97709.00
2022-11-17T03:47:53.286Z,97679.00
2022-11-17T03:50:37.036Z,97675.00
2022-11-17T03:53:04.343Z,97680.00
2022-11-17T03:55:53.004Z,97677.00
2022-11-17T03:58:27.001Z,97664.00
2022-11-17T04:00:54.049Z,97693.00
2022-11-17T04:03:32.176Z,97678.00
2022-11-17T04:05:59.856Z,97679.00
2022-11-17T04:08:34.051Z,97658.00
2022-11-17T04:11:01.118Z,97666.00
2022-11-17T04:13:35.211Z,97700.00
2022-11-17T04:16:02.448Z,97691.00
2022-11-17T04:18:29.400Z,97692.00
2022-11-17T04:21:04.100Z,97645.00
2022-11-17T04:23:31.118Z,97652.00
2022-11-17T04:25:58.139Z,97675.00
2022-11-17T04:28:33.011Z,97645.00
2022-11-17T04:31:00.000Z,97681.00
2022-11-17T04:33:34.243Z,97658.00
2022-11-17T04:36:08.060Z,97645.00
2022-11-17T04:38:35.080Z,97672.00
2022-11-17T04:41:11.062Z,97683.00
2022-11-17T04:43:44.958Z,97660.00
2022-11-17T04:46:11.987Z,97666.00
2022-11-17T04:48:45.063Z,97666.00
2022-11-17T04:51:18.981Z,97643.00
2022-11-17T04:53:46.071Z,97648.00
2022-11-17T04:56:20.033Z,97611.00
2022-11-17T04:58:47.106Z,97655.00
2022-11-17T05:01:14.325Z,97638.00
2022-11-17T05:03:53.016Z,97673.00
2022-11-17T05:06:23.705Z,97666.00
2022-11-17T05:08:51.070Z,97651.00
2022-11-17T05:11:25.176Z,97657.00
2022-11-17T05:13:52.316Z,97682.00
2022-11-17T05:16:19.927Z,97685.00
2022-11-17T05:18:52.996Z,97698.00
2022-11-17T05:21:27.057Z,97681.00
2022-11-17T05:24:00.000Z,97670.00
2022-11-17T05:26:29.774Z,97636.00
2022-11-17T05:29:04.037Z,97625.00
2022-11-17T05:31:37.957Z,97640.00
2022-11-17T05:34:06.333Z,97673.00
2022-11-17T05:36:33.557Z,97667.00
2022-11-17T05:39:07.031Z,97695.00
2022-11-17T05:41:34.079Z,97672.00
2022-11-17T05:44:01.166Z,97680.00
2022-11-17T05:46:35.044Z,97687.00
2022-11-17T05:49:09.045Z,97675.00
2022-11-17T05:51:36.096Z,97653.00
2022-11-17T05:54:10.016Z,97664.00
2022-11-17T05:56:55.031Z,97678.00
2022-11-17T05:59:28.423Z,97667.00
2022-11-17T06:02:03.117Z,97661.00
2022-11-17T06:04:37.200Z,97655.00
2022-11-17T06:07:04.335Z,97645.00
2022-11-17T06:09:34.376Z,97645.00
2022-11-17T06:12:08.008Z,97649.00
2022-11-17T06:14:35.357Z,97641.00
2022-11-17T06:17:12.796Z,97654.00
2022-11-17T06:19:43.987Z,97652.00
2022-11-17T06:22:17.047Z,97659.00
2022-11-17T06:24:51.005Z,97654.00
2022-11-17T06:27:17.960Z,97675.00
2022-11-17T06:29:45.300Z,97677.00
2022-11-17T06:32:23.068Z,97682.00
2022-11-17T06:34:55.193Z,97680.00
2022-11-17T06:37:29.996Z,97668.00
2022-11-17T06:39:57.036Z,97674.00
2022-11-17T06:42:30.093Z,97667.00
2022-11-17T06:44:56.987Z,97664.00
2022-11-17T06:47:23.984Z,97688.00
2022-11-17T06:49:57.053Z,97682.00
2022-11-17T06:52:24.007Z,97670.00
2022-11-17T06:54:57.087Z,97679.00
2022-11-17T06:57:31.095Z,97696.00
2022-11-17T06:59:58.102Z,97694.00
2022-11-17T07:02:32.123Z,97664.00
2022-11-17T07:04:59.211Z,97695.00
2022-11-17T07:07:33.101Z,97674.00
2022-11-17T07:10:07.163Z,97691.00
2022-11-17T07:12:34.107Z,97676.00
2022-11-17T07:15:08.138Z,97686.00
2022-11-17T07:17:35.160Z,97687.00
2022-11-17T07:20:09.123Z,97676.00
2022-11-17T07:22:36.936Z,97692.00
2022-11-17T07:25:04.475Z,97663.00
2022-11-17T07:27:38.114Z,97685.00
2022-11-17T07:30:06.241Z,97695.00
2022-11-17T07:32:41.097Z,97688.00
2022-11-17T07:35:08.801Z,97701.00
2022-11-17T07:37:42.163Z,97710.00
2022-11-17T07:40:10.381Z,97689.00
2022-11-17T07:42:37.553Z,97698.00
2022-11-17T07:45:11.721Z,97707.00
2022-11-17T07:47:38.687Z,97690.00
2022-11-17T07:50:13.200Z,97676.00
2022-11-17T07:52:41.567Z,97692.00
2022-11-17T07:55:15.201Z,97665.00
2022-11-17T07:57:49.173Z,97702.00
2022-11-17T08:00:23.103Z,97690.00
2022-11-17T08:02:50.045Z,97692.00
2022-11-17T08:05:24.168Z,97697.00
2022-11-17T08:07:55.415Z,97705.00
2022-11-17T08:10:22.512Z,97674.00
2022-11-17T08:13:02.141Z,97675.00
2022-11-17T08:15:29.384Z,97668.00
2022-11-17T08:18:04.128Z,97665.00
2022-11-17T08:20:31.056Z,97685.00
2022-11-17T08:23:04.199Z,97679.00
2022-11-17T08:25:31.212Z,97672.00
2022-11-17T08:28:05.231Z,97675.00
2022-11-17T08:30:32.362Z,97687.00
2022-11-17T08:33:06.163Z,97687.00
2022-11-17T08:35:37.442Z,97697.00
2022-11-17T08:38:04.837Z,97712.00
2022-11-17T08:40:38.105Z,97721.00
2022-11-17T08:43:05.165Z,97713.00
2022-11-17T08:45:39.119Z,97716.00
2022-11-17T08:48:14.137Z,97714.00
2022-11-17T08:50:47.171Z,97707.00
2022-11-17T08:53:22.065Z,97704.00
2022-11-17T08:55:56.230Z,97705.00
2022-11-17T08:58:23.187Z,97683.00
2022-11-17T09:01:02.340Z,97702.00
2022-11-17T09:03:32.073Z,97706.00
2022-11-17T09:06:05.201Z,97709.00
2022-11-17T09:08:47.960Z,97702.00
2022-11-17T09:11:21.097Z,97712.00
2022-11-17T09:13:48.097Z,97694.00
2022-11-17T09:16:22.115Z,97701.00
2022-11-17T09:18:49.061Z,97683.00
2022-11-17T09:21:22.180Z,97694.00
2022-11-17T09:23:49.253Z,97706.00
2022-11-17T09:26:23.099Z,97688.00
2022-11-17T09:28:49.959Z,97698.00
2022-11-17T09:31:26.158Z,97689.00
2022-11-17T09:34:04.855Z,97703.00
2022-11-17T09:36:32.439Z,97698.00
2022-11-17T09:39:06.157Z,97716.00
2022-11-17T09:41:48.196Z,97706.00
2022-11-17T09:44:35.675Z,97729.00
2022-11-17T09:47:23.141Z,97735.00
2022-11-17T09:50:25.159Z,97728.00
2022-11-17T09:53:32.467Z,97730.00
2022-11-17T09:56:04.376Z,97723.00
2022-11-17T09:59:05.146Z,97717.00
2022-11-17T10:01:32.147Z,97705.00
2022-11-17T10:04:06.147Z,97719.00
2022-11-17T10:06:39.142Z,97717.00
2022-11-17T10:09:39.158Z,97684.00
2022-11-17T10:12:26.160Z,97701.00
2022-11-17T10:15:01.200Z,97703.00
2022-11-17T10:17:28.144Z,97694.00
2022-11-17T10:19:55.184Z,97699.00
2022-11-17T10:22:42.140Z,97694.00
2022-11-17T10:25:35.407Z,97678.00
2022-11-17T10:28:09.174Z,97682.00
2022-11-17T10:30:36.267Z,97675.00
2022-11-17T10:33:03.337Z,97676.00
2022-11-17T10:35:42.192Z,97671.00
2022-11-17T10:38:18.149Z,97683.00
2022-11-17T10:40:54.195Z,97668.00
2022-11-17T10:43:32.597Z,97687.00
2022-11-17T10:46:20.160Z,97679.00
2022-11-17T10:49:09.345Z,97687.00
2022-11-17T10:51:36.361Z,97684.00
2022-11-17T10:54:22.170Z,97687.00
2022-11-17T10:56:54.537Z,97666.00
2022-11-17T10:59:38.216Z,97680.00
2022-11-17T11:02:37.532Z,97663.00
2022-11-17T11:05:22.242Z,97674.00
2022-11-17T11:07:56.218Z,97672.00
2022-11-17T11:10:32.685Z,97659.00
2022-11-17T11:13:13.180Z,97642.00
2022-11-17T11:15:40.219Z,97646.00
2022-11-17T11:18:22.178Z,97625.00
2022-11-17T11:21:04.710Z,97644.00
2022-11-17T11:23:50.271Z,97647.00
2022-11-17T11:26:53.208Z,97633.00
2022-11-17T11:29:47.155Z,97647.00
2022-11-17T11:32:55.578Z,97654.00
2022-11-17T11:35:40.179Z,97644.00
2022-11-17T11:38:50.290Z,97635.00
2022-11-17T11:41:19.727Z,97638.00
2022-11-17T11:44:26.213Z,97644.00
2022-11-17T11:47:11.410Z,97628.00
2022-11-17T11:50:10.210Z,97646.00
2022-11-17T11:52:39.126Z,97628.00
2022-11-17T11:55:42.164Z,97632.00
2022-11-17T11:58:16.318Z,97616.00
2022-11-17T12:00:50.197Z,97607.00
2022-11-17T12:03:19.828Z,97623.00
2022-11-17T12:06:05.233Z,97631.00
2022-11-17T12:08:48.187Z,97635.00
2022-11-17T12:11:15.075Z,97626.00
2022-11-17T12:13:48.487Z,97629.00
2022-11-17T12:16:26.204Z,97648.00
2022-11-17T12:18:53.082Z,97647.00
2022-11-17T12:21:35.182Z,97643.00
2022-11-17T12:24:17.669Z,97644.00
2022-11-17T12:26:51.209Z,97638.00
2022-11-17T12:29:23.960Z,97637.00
2022-11-17T12:32:05.245Z,97629.00
2022-11-17T12:34:36.037Z,97614.00
2022-11-17T12:37:21.237Z,97632.00
2022-11-17T12:40:52.826Z,97643.00
2022-11-17T12:43:30.258Z,97628.00
2022-11-17T12:46:32.276Z,97637.00
2022-11-17T12:49:07.447Z,97631.00
2022-11-17T12:51:51.206Z,97631.00
2022-11-17T12:54:28.243Z,97616.00
2022-11-17T12:57:16.290Z,97605.00
2022-11-17T13:00:24.279Z,97609.00
2022-11-17T13:03:17.719Z,97589.00
2022-11-17T13:06:01.625Z,97586.00
2022-11-17T13:08:38.299Z,97604.00
2022-11-17T13:11:21.225Z,97604.00
2022-11-17T13:13:48.128Z,97584.00
2022-11-17T13:16:28.245Z,97614.00
2022-11-17T13:18:55.138Z,97612.00
2022-11-17T13:21:31.256Z,97610.00
2022-11-17T13:23:59.187Z,97602.00
2022-11-17T13:26:39.278Z,97607.00
2022-11-17T13:29:09.796Z,97610.00
2022-11-17T13:31:43.233Z,97598.00
2022-11-17T13:34:14.445Z,97596.00
2022-11-17T13:37:05.281Z,97594.00
2022-11-17T13:39:38.214Z,97586.00
2022-11-17T13:42:05.177Z,97591.00
2022-11-17T13:44:32.054Z,97606.00
2022-11-17T13:47:28.226Z,97603.00
2022-11-17T13:49:55.240Z,97606.00
2022-11-17T13:52:46.725Z,97614.00
2022-11-17T13:55:18.884Z,97602.00
2022-11-17T13:58:27.392Z,97611.00
2022-11-17T14:00:55.953Z,97595.00
2022-11-17T14:03:57.263Z,97597.00
2022-11-17T14:06:24.115Z,97596.00
2022-11-17T14:09:17.263Z,97608.00
2022-11-17T14:11:44.150Z,97582.00
2022-11-17T14:14:14.560Z,97588.00
2022-11-17T14:16:48.324Z,97598.00
2022-11-17T14:19:15.242Z,97591.00
2022-11-17T14:22:23.430Z,97589.00
2022-11-17T14:24:51.916Z,97597.00
2022-11-17T14:27:37.302Z,97595.00
2022-11-17T14:30:05.545Z,97592.00
2022-11-17T14:32:32.484Z,97605.00
2022-11-17T14:35:06.339Z,97608.00
2022-11-17T14:37:33.195Z,97595.00
2022-11-17T14:40:06.310Z,97603.00
2022-11-17T14:42:36.077Z,97612.00
2022-11-17T14:45:03.976Z,97608.00
2022-11-17T14:47:37.313Z,97594.00
2022-11-17T14:50:04.690Z,97604.00
2022-11-17T14:52:44.294Z,97601.00
2022-11-17T14:55:14.146Z,97607.00
2022-11-17T14:57:48.301Z,97607.00
2022-11-17T15:00:20.083Z,97598.00
2022-11-17T15:02:54.335Z,97599.00
2022-11-17T15:05:27.302Z,97589.00
2022-11-17T15:07:56.344Z,97577.00
2022-11-17T15:10:29.313Z,97572.00
2022-11-17T15:12:56.234Z,97573.00
2022-11-17T15:15:29.346Z,97560.00
2022-11-17T15:17:56.247Z,97559.00
2022-11-17T15:20:23.124Z,97558.00
2022-11-17T15:23:02.907Z,97577.00
2022-11-17T15:25:37.310Z,97574.00
2022-11-17T15:28:12.691Z,97591.00
2022-11-17T15:30:41.934Z,97601.00
2022-11-17T15:33:15.383Z,97608.00
2022-11-17T15:35:42.367Z,97610.00
2022-11-17T15:38:09.289Z,97608.00
2022-11-17T15:40:42.323Z,97602.00
2022-11-17T15:43:09.263Z,97613.00
2022-11-17T15:45:42.338Z,97599.00
2022-11-17T15:48:09.215Z,97588.00
2022-11-17T15:50:42.336Z,97601.00
2022-11-17T15:53:09.203Z,97588.00
2022-11-17T15:55:42.307Z,97587.00
2022-11-17T15:58:09.257Z,97592.00
2022-11-17T16:00:42.384Z,97590.00
2022-11-17T16:03:09.280Z,97597.00
2022-11-17T16:05:36.228Z,97606.00
2022-11-17T16:08:09.305Z,97607.00
2022-11-17T16:10:36.176Z,97608.00
2022-11-17T16:13:09.315Z,97598.00
2022-11-17T16:15:36.212Z,97607.00
2022-11-17T16:18:03.100Z,97605.00
2022-11-17T16:20:36.395Z,97580.00
2022-11-17T16:23:03.378Z,97584.00
2022-11-17T16:25:36.380Z,97561.00
2022-11-17T16:28:03.326Z,97569.00
2022-11-17T16:30:36.405Z,97573.00
2022-11-17T16:33:06.384Z,97591.00
2022-11-17T16:35:33.288Z,97591.00
2022-11-17T16:38:06.375Z,97588.00
2022-11-17T16:40:33.313Z,97572.00
2022-11-17T16:43:06.337Z,97585.00
2022-11-17T16:45:44.645Z,97599.00
2022-11-17T16:48:19.339Z,97588.00
2022-11-17T16:50:46.312Z,97601.00
2022-11-17T16:53:20.405Z,97596.00
2022-11-17T16:55:47.315Z,97593.00
2022-11-17T16:58:14.317Z,97603.00
2022-11-17T17:00:47.421Z,97602.00
2022-11-17T17:03:16.613Z,97593.00
2022-11-17T17:05:50.428Z,97611.00
2022-11-17T17:08:17.370Z,97597.00
2022-11-17T17:10:50.429Z,97599.00
2022-11-17T17:13:17.342Z,97596.00
2022-11-17T17:15:50.387Z,97591.00
2022-11-17T17:18:17.210Z,97602.00
2022-11-17T17:20:58.408Z,97598.00
2022-11-17T17:23:25.695Z,97602.00
2022-11-17T17:26:16.421Z,97608.00
2022-11-17T17:28:47.103Z,97607.00
2022-11-17T17:31:22.583Z,97581.00
2022-11-17T17:33:50.652Z,97595.00
2022-11-17T17:36:20.124Z,97611.00
2022-11-17T17:38:55.933Z,97615.00
2022-11-17T17:41:32.403Z,97612.00
2022-11-17T17:44:08.437Z,97614.00
2022-11-17T17:46:37.788Z,97621.00
2022-11-17T17:49:11.423Z,97625.00
2022-11-17T17:51:40.346Z,97633.00
2022-11-17T17:54:14.373Z,97618.00
2022-11-17T17:56:41.320Z,97627.00
2022-11-17T17:59:14.743Z,97616.00
2022-11-17T18:01:41.871Z,97615.00
2022-11-17T18:04:11.305Z,97609.00
2022-11-17T18:06:49.427Z,97604.00
2022-11-17T18:09:22.407Z,97600.00
2022-11-17T18:11:50.040Z,97614.00
2022-11-17T18:14:25.402Z,97602.00
2022-11-17T18:16:53.064Z,97596.00
2022-11-17T18:19:20.077Z,97577.00
2022-11-17T18:21:53.427Z,97602.00
2022-11-17T18:24:26.430Z,97590.00
2022-11-17T18:26:59.440Z,97595.00
2022-11-17T18:29:26.389Z,97591.00
2022-11-17T18:31:59.402Z,97588.00
2022-11-17T18:34:32.419Z,97590.00
2022-11-17T18:36:59.254Z,97592.00
2022-11-17T18:39:32.471Z,97598.00
2022-11-17T18:41:59.343Z,97578.00
2022-11-17T18:44:32.453Z,97572.00
2022-11-17T18:47:02.692Z,97574.00
2022-11-17T18:49:37.458Z,97563.00
2022-11-17T18:52:04.335Z,97556.00
2022-11-17T18:54:37.442Z,97568.00
2022-11-17T18:57:10.458Z,97582.00
2022-11-17T18:59:37.397Z,97586.00
2022-11-17T19:02:10.452Z,97584.00
2022-11-17T19:04:37.443Z,97553.00
2022-11-17T19:07:10.540Z,97565.00
2022-11-17T19:09:37.475Z,97544.00
2022-11-17T19:12:11.505Z,97539.00
2022-11-17T19:14:38.420Z,97530.00
2022-11-17T19:17:11.480Z,97535.00
2022-11-17T19:19:38.350Z,97522.00
2022-11-17T19:22:05.287Z,97542.00
2022-11-17T19:24:38.511Z,97552.00
2022-11-17T19:27:05.466Z,97566.00
2022-11-17T19:29:38.412Z,97565.00
2022-11-17T19:32:05.567Z,97552.00
2022-11-17T19:34:38.480Z,97566.00
2022-11-17T19:37:05.448Z,97583.00
2022-11-17T19:39:38.490Z,97580.00
2022-11-17T19:42:11.574Z,97576.00
2022-11-17T19:44:38.564Z,97604.00
2022-11-17T19:47:12.452Z,97603.00
2022-11-17T19:49:39.386Z,97588.00
2022-11-17T19:52:12.535Z,97597.00
2022-11-17T19:54:39.458Z,97592.00
2022-11-17T19:57:12.453Z,97594.00
2022-11-17T19:59:39.388Z,97602.00
2022-11-17T20:02:12.483Z,97612.00
2022-11-17T20:04:46.490Z,97614.00
2022-11-17T20:07:13.511Z,97638.00
2022-11-17T20:09:40.570Z,97634.00
2022-11-17T20:12:14.484Z,97640.00
2022-11-17T20:14:41.381Z,97641.00
2022-11-17T20:17:14.482Z,97643.00
2022-11-17T20:19:41.337Z,97642.00
2022-11-17T20:22:14.514Z,97622.00
2022-11-17T20:24:41.441Z,97632.00
2022-11-17T20:27:14.498Z,97669.00
2022-11-17T20:29:41.415Z,97671.00
2022-11-17T20:32:14.527Z,97653.00
2022-11-17T20:34:41.450Z,97653.00
2022-11-17T20:37:14.502Z,97641.00
2022-11-17T20:39:41.377Z,97663.00
2022-11-17T20:42:14.569Z,97672.00
2022-11-17T20:44:41.473Z,97655.00
2022-11-17T20:47:14.530Z,97645.00
2022-11-17T20:49:48.180Z,97631.00
2022-11-17T20:52:21.483Z,97570.00
2022-11-17T20:54:48.381Z,97536.00
2022-11-17T20:57:21.514Z,97535.00
2022-11-17T20:59:48.475Z,97524.00
2022-11-17T21:02:21.550Z,97580.00
2022-11-17T21:04:48.485Z,97595.00
2022-11-17T21:07:21.585Z,97566.00
2022-11-17T21:09:48.502Z,97578.00
2022-11-17T21:12:15.439Z,97594.00
2022-11-17T21:14:48.560Z,97589.00
2022-11-17T21:17:21.569Z,97580.00
2022-11-17T21:19:48.507Z,97565.00
2022-11-17T21:22:15.396Z,97576.00
2022-11-17T21:24:48.504Z,97547.00
2022-11-17T21:27:21.565Z,97566.00
2022-11-17T21:29:48.525Z,97548.00
2022-11-17T21:32:21.529Z,97556.00
2022-11-17T21:34:49.867Z,97567.00
2022-11-17T21:37:23.517Z,97580.00
2022-11-17T21:39:50.510Z,97604.00
2022-11-17T21:42:23.546Z,97606.00
2022-11-17T21:44:50.538Z,97594.00
2022-11-17T21:47:23.501Z,97597.00
2022-11-17T21:49:50.374Z,97602.00
2022-11-17T21:52:23.523Z,97575.00
2022-11-17T21:54:50.427Z,97584.00
2022-11-17T21:57:23.523Z,97580.00
2022-11-17T21:59:50.442Z,97580.00
2022-11-17T22:02:23.534Z,97586.00
2022-11-17T22:04:50.412Z,97592.00
2022-11-17T22:07:17.396Z,97576.00
2022-11-17T22:09:50.575Z,97583.00
2022-11-17T22:12:17.460Z,97571.00
2022-11-17T22:14:44.312Z,97594.00
2022-11-17T22:17:17.583Z,97594.00
2022-11-17T22:19:50.507Z,97576.00
2022-11-17T22:22:17.378Z,97566.00
2022-11-17T22:24:50.569Z,97552.00
2022-11-17T22:27:17.510Z,97527.00
2022-11-17T22:29:50.562Z,97517.00
2022-11-17T22:32:23.534Z,97533.00
2022-11-17T22:34:50.462Z,97581.00
2022-11-17T22:37:23.556Z,97586.00
2022-11-17T22:39:50.462Z,97575.00
2022-11-17T22:42:23.585Z,97574.00
2022-11-17T22:44:50.570Z,97567.00
2022-11-17T22:47:17.441Z,97558.00
2022-11-17T22:49:50.582Z,97540.00
2022-11-17T22:52:23.611Z,97514.00
2022-11-17T22:54:50.505Z,97528.00
2022-11-17T22:57:17.425Z,97531.00
2022-11-17T22:59:50.560Z,97560.00
2022-11-17T23:02:17.430Z,97569.00
2022-11-17T23:04:50.558Z,97559.00
2022-11-17T23:07:17.493Z,97572.00
2022-11-17T23:09:50.562Z,97572.00
2022-11-17T23:12:17.426Z,97554.00
2022-11-17T23:14:44.270Z,97555.00
2022-11-17T23:17:17.561Z,97576.00
2022-11-17T23:19:50.621Z,97579.00
2022-11-17T23:22:17.491Z,97581.00
2022-11-17T23:24:44.370Z,97571.00
2022-11-17T23:27:17.611Z,97588.00
2022-11-17T23:29:44.502Z,97574.00
2022-11-17T23:32:11.397Z,97582.00
2022-11-17T23:34:44.628Z,97585.00
2022-11-17T23:37:12.054Z,97569.00
2022-11-17T23:39:45.634Z,97585.00
2022-11-17T23:42:12.547Z,97578.00
2022-11-17T23:44:45.595Z,97578.00
2022-11-17T23:47:12.614Z,97573.00
2022-11-17T23:49:39.518Z,97571.00
2022-11-17T23:52:12.555Z,97559.00
2022-11-17T23:54:45.619Z,97553.00
2022-11-17T23:57:18.611Z,97559.00
2022-11-17T23:59:51.603Z,97555.00
